MSC Newyork — HOFP — position and weather

sailwx.info

Track history (hours):
 
Tides and Currents Weather Stations Pressure Air Temp Water Temp Dewpoint Dewpoint Depression Visibility Wind Speed Wind Dir Waves Ship Positions

MSC Newyork

Last reported at 2018-Jun-13 05:06 UTC. Time now 2018-Jun-18 19:04 UTC.
Position N 31°22' E 121°43'.

Length 399 m; draft 7.5 m.

Type: Cargo ship. MMSI: 352952000.

Date/timePositionNaut miles runAvg speedWind from/ knotsBaromVisibWave heightAir tempDewpointWater temp
2018-Jun-13 05:06N 31°22' E 121°43'1 5.3
2018-Jun-13 04:56N 31°21' E 121°43'2 5.6
2018-Jun-13 04:30N 31°19' E 121°44'2 3.3
2018-Jun-13 03:55N 31°17' E 121°45'511.8
2018-Jun-13 03:30N 31°13' E 121°48'612.3
2018-Jun-13 03:00N 31°09' E 121°53'612.6
2018-Jun-13 02:30N 31°06' E 121°60'510.0
2018-Jun-13 02:00N 31°04' E 122°05'611.9
2018-Jun-13 01:28N 31°03' E 122°13'612.1
2018-Jun-13 01:00N 31°02' E 122°19'511.2
2018-Jun-13 00:30N 31°01' E 122°25'612.7
2018-Jun-13 00:00N 30°60' E 122°33'713.1
2018-Jun-12 23:29N 30°59' E 122°41'611.9
2018-Jun-12 23:00N 30°60' E 122°47'2 3.9
2018-Jun-12 22:28N 31°00' E 122°50'0 0.1
2018-Jun-12 18:58N 31°00' E 122°50'0 0.0
2018-Jun-12 18:04N 31°00' E 122°50'0 0.2
2018-Jun-12 17:58N 31°00' E 122°50'0 0.0
2018-Jun-12 17:28N 31°00' E 122°50'0 0.0
2018-Jun-12 16:52N 31°00' E 122°50'0 0.1
2018-Jun-12 16:22N 31°00' E 122°50'0 0.1
2018-Jun-12 15:07N 31°00' E 122°50'0 0.0
2018-Jun-12 10:10N 31°00' E 122°50'0 0.1
2018-Jun-12 09:58N 31°00' E 122°50'0 0.1
2018-Jun-12 09:28N 31°00' E 122°50'0 0.1
2018-Jun-12 08:58N 31°00' E 122°50'0 0.1
2018-Jun-12 08:28N 31°00' E 122°50'0 0.0
2018-Jun-12 07:58N 31°00' E 122°50'0 0.1
2018-Jun-12 07:28N 31°00' E 122°50'0 0.0
2018-Jun-12 06:58N 31°00' E 122°50'0 0.0
2018-Jun-12 06:28N 31°00' E 122°50'0 0.0
2018-Jun-12 05:40N 31°00' E 122°50'0 0.1
2018-Jun-12 05:16N 31°00' E 122°50'0 0.1
2018-Jun-12 04:52N 31°00' E 122°50'0 0.1
2018-Jun-12 04:28N 31°00' E 122°50'0 0.1
2018-Jun-12 03:58N 31°00' E 122°50'0 0.0
2018-Jun-12 02:52N 31°00' E 122°50'0 0.1
2018-Jun-12 02:13N 31°00' E 122°50'0 0.0
2018-Jun-12 01:58N 31°00' E 122°50'0 0.1
2018-Jun-12 01:28N 31°00' E 122°50'0 0.0
2018-Jun-12 00:58N 31°00' E 122°50'0 0.0
2018-Jun-11 23:40N 31°00' E 122°50'0 0.1
2018-Jun-11 23:28N 31°00' E 122°50'0 0.1
2018-Jun-11 22:46N 31°00' E 122°50'0 0.2
2018-Jun-11 22:28N 31°00' E 122°50'0 0.1
2018-Jun-11 21:46N 31°00' E 122°50'0 0.1
2018-Jun-11 21:10N 31°00' E 122°50'0 0.1
2018-Jun-11 20:34N 31°00' E 122°50'0 0.1
2018-Jun-11 20:28N 31°00' E 122°50'0 0.1
2018-Jun-11 19:58N 31°00' E 122°50'0 0.0
2018-Jun-11 19:28N 31°00' E 122°50'0 0.0
2018-Jun-11 18:58N 31°00' E 122°50'0 0.0
2018-Jun-11 18:25N 31°00' E 122°50'0 0.1
2018-Jun-11 17:52N 31°00' E 122°50'0 0.0
2018-Jun-11 17:28N 31°00' E 122°50'0 0.0
2018-Jun-11 16:58N 31°00' E 122°50'0 0.0
2018-Jun-11 16:28N 31°00' E 122°50'0 0.0
2018-Jun-11 15:49N 31°00' E 122°50'0 0.1
2018-Jun-11 15:28N 31°00' E 122°50'12 0.3
2018-Jun-09 20:42N 30°51' E 122°59'4512.1
2018-Jun-09 16:59N 30°34' E 122°10'613.3
2018-Jun-09 16:30N 30°37' E 122°04'1 1.5
2018-Jun-09 15:44N 30°38' E 122°03'0 0.0
2018-Jun-09 14:44N 30°38' E 122°03'0 0.0
2018-Jun-09 14:29N 30°38' E 122°03'0 0.0
2018-Jun-09 13:59N 30°38' E 122°03'0 0.0
2018-Jun-09 13:29N 30°38' E 122°03'0 0.0
2018-Jun-09 12:50N 30°38' E 122°03'0 0.1
2018-Jun-09 12:23N 30°38' E 122°03'0 0.1
2018-Jun-09 11:56N 30°38' E 122°03'0 0.0
2018-Jun-09 11:26N 30°38' E 122°03'0 0.0
2018-Jun-09 10:56N 30°38' E 122°03'0 0.0
2018-Jun-09 10:29N 30°38' E 122°03'0 0.0
2018-Jun-09 09:56N 30°38' E 122°03'0 0.0
2018-Jun-09 09:02N 30°38' E 122°03'0 0.0
2018-Jun-09 07:38N 30°38' E 122°03'0 0.0
2018-Jun-09 07:29N 30°38' E 122°03'0 0.0
2018-Jun-09 06:59N 30°38' E 122°03'0 0.0
2018-Jun-09 05:47N 30°38' E 122°03'0 0.4
2018-Jun-09 05:27N 30°38' E 122°03'1 2.3
2018-Jun-09 05:00N 30°37' E 122°03'3 5.1
2018-Jun-09 04:28N 30°36' E 122°06'511.9
2018-Jun-09 04:00N 30°34' E 122°12'2810.9
2018-Jun-09 01:26N 30°28' E 122°44'  
2018-Jun-06 03:13N 24°38' E 119°32'415.8
2018-Jun-06 02:59N 24°35' E 119°29'815.8
2018-Jun-06 02:27N 24°29' E 119°23'715.8
2018-Jun-06 02:00N 24°24' E 119°17'916.2
2018-Jun-06 01:26N 24°18' E 119°09'716.3
2018-Jun-06 01:00N 24°14' E 119°03'816.1
2018-Jun-06 00:31N 24°09' E 118°57'915.9
2018-Jun-05 23:58N 24°03' E 118°50'715.8
2018-Jun-05 23:30N 23°58' E 118°44'815.7
2018-Jun-05 23:00N 23°53' E 118°37'815.6
2018-Jun-05 22:31N 23°48' E 118°31'815.5
2018-Jun-05 22:00N 23°42' E 118°25'1415.8
2018-Jun-05 21:09N 23°34' E 118°13'215.9
2018-Jun-05 21:00N 23°32' E 118°11'816.2
2018-Jun-05 20:30N 23°27' E 118°05'916.3
2018-Jun-05 19:59N 23°23' E 117°56'816.6
2018-Jun-05 19:30N 23°18' E 117°50'817.0
2018-Jun-05 19:00N 23°13' E 117°42'917.2
2018-Jun-05 18:27N 23°09' E 117°33'816.9
2018-Jun-05 18:00N 23°05' E 117°26'916.9
2018-Jun-05 17:30N 23°01' E 117°18'  
Track history (hours):
 
Tides and Currents Weather Stations Pressure Air Temp Water Temp Dewpoint Dewpoint Depression Visibility Wind Speed Wind Dir Waves Ship Positions

MSC Newyork

Last reported at 2018-Jun-13 05:06 UTC. Time now 2018-Jun-18 19:04 UTC.
Position N 31°22' E 121°43'.

Length 399 m; draft 7.5 m.

Type: Cargo ship. MMSI: 352952000.

Date/timePositionNaut miles runAvg speedWind from/ knotsBaromVisibWave heightAir tempDewpointWater temp
2018-Jun-13 05:06N 31°22' E 121°43'1 5.3
2018-Jun-13 04:56N 31°21' E 121°43'2 5.6
2018-Jun-13 04:30N 31°19' E 121°44'2 3.3
2018-Jun-13 03:55N 31°17' E 121°45'511.8
2018-Jun-13 03:30N 31°13' E 121°48'612.3
2018-Jun-13 03:00N 31°09' E 121°53'612.6
2018-Jun-13 02:30N 31°06' E 121°60'510.0
2018-Jun-13 02:00N 31°04' E 122°05'611.9
2018-Jun-13 01:28N 31°03' E 122°13'612.1
2018-Jun-13 01:00N 31°02' E 122°19'511.2
2018-Jun-13 00:30N 31°01' E 122°25'612.7
2018-Jun-13 00:00N 30°60' E 122°33'713.1
2018-Jun-12 23:29N 30°59' E 122°41'611.9
2018-Jun-12 23:00N 30°60' E 122°47'2 3.9
2018-Jun-12 22:28N 31°00' E 122°50'0 0.1
2018-Jun-12 18:58N 31°00' E 122°50'0 0.0
2018-Jun-12 18:04N 31°00' E 122°50'0 0.2
2018-Jun-12 17:58N 31°00' E 122°50'0 0.0
2018-Jun-12 17:28N 31°00' E 122°50'0 0.0
2018-Jun-12 16:52N 31°00' E 122°50'0 0.1
2018-Jun-12 16:22N 31°00' E 122°50'0 0.1
2018-Jun-12 15:07N 31°00' E 122°50'0 0.0
2018-Jun-12 10:10N 31°00' E 122°50'0 0.1
2018-Jun-12 09:58N 31°00' E 122°50'0 0.1
2018-Jun-12 09:28N 31°00' E 122°50'0 0.1
2018-Jun-12 08:58N 31°00' E 122°50'0 0.1
2018-Jun-12 08:28N 31°00' E 122°50'0 0.0
2018-Jun-12 07:58N 31°00' E 122°50'0 0.1
2018-Jun-12 07:28N 31°00' E 122°50'0 0.0
2018-Jun-12 06:58N 31°00' E 122°50'0 0.0
2018-Jun-12 06:28N 31°00' E 122°50'0 0.0
2018-Jun-12 05:40N 31°00' E 122°50'0 0.1
2018-Jun-12 05:16N 31°00' E 122°50'0 0.1
2018-Jun-12 04:52N 31°00' E 122°50'0 0.1
2018-Jun-12 04:28N 31°00' E 122°50'0 0.1
2018-Jun-12 03:58N 31°00' E 122°50'0 0.0
2018-Jun-12 02:52N 31°00' E 122°50'0 0.1
2018-Jun-12 02:13N 31°00' E 122°50'0 0.0
2018-Jun-12 01:58N 31°00' E 122°50'0 0.1
2018-Jun-12 01:28N 31°00' E 122°50'0 0.0
2018-Jun-12 00:58N 31°00' E 122°50'0 0.0
2018-Jun-11 23:40N 31°00' E 122°50'0 0.1
2018-Jun-11 23:28N 31°00' E 122°50'0 0.1
2018-Jun-11 22:46N 31°00' E 122°50'0 0.2
2018-Jun-11 22:28N 31°00' E 122°50'0 0.1
2018-Jun-11 21:46N 31°00' E 122°50'0 0.1
2018-Jun-11 21:10N 31°00' E 122°50'0 0.1
2018-Jun-11 20:34N 31°00' E 122°50'0 0.1
2018-Jun-11 20:28N 31°00' E 122°50'0 0.1
2018-Jun-11 19:58N 31°00' E 122°50'0 0.0
2018-Jun-11 19:28N 31°00' E 122°50'0 0.0
2018-Jun-11 18:58N 31°00' E 122°50'0 0.0
2018-Jun-11 18:25N 31°00' E 122°50'0 0.1
2018-Jun-11 17:52N 31°00' E 122°50'0 0.0
2018-Jun-11 17:28N 31°00' E 122°50'0 0.0
2018-Jun-11 16:58N 31°00' E 122°50'0 0.0
2018-Jun-11 16:28N 31°00' E 122°50'0 0.0
2018-Jun-11 15:49N 31°00' E 122°50'0 0.1
2018-Jun-11 15:28N 31°00' E 122°50'12 0.3
2018-Jun-09 20:42N 30°51' E 122°59'4512.1
2018-Jun-09 16:59N 30°34' E 122°10'613.3
2018-Jun-09 16:30N 30°37' E 122°04'1 1.5
2018-Jun-09 15:44N 30°38' E 122°03'0 0.0
2018-Jun-09 14:44N 30°38' E 122°03'0 0.0
2018-Jun-09 14:29N 30°38' E 122°03'0 0.0
2018-Jun-09 13:59N 30°38' E 122°03'0 0.0
2018-Jun-09 13:29N 30°38' E 122°03'0 0.0
2018-Jun-09 12:50N 30°38' E 122°03'0 0.1
2018-Jun-09 12:23N 30°38' E 122°03'0 0.1
2018-Jun-09 11:56N 30°38' E 122°03'0 0.0
2018-Jun-09 11:26N 30°38' E 122°03'0 0.0
2018-Jun-09 10:56N 30°38' E 122°03'0 0.0
2018-Jun-09 10:29N 30°38' E 122°03'0 0.0
2018-Jun-09 09:56N 30°38' E 122°03'0 0.0
2018-Jun-09 09:02N 30°38' E 122°03'0 0.0
2018-Jun-09 07:38N 30°38' E 122°03'0 0.0
2018-Jun-09 07:29N 30°38' E 122°03'0 0.0
2018-Jun-09 06:59N 30°38' E 122°03'0 0.0
2018-Jun-09 05:47N 30°38' E 122°03'0 0.4
2018-Jun-09 05:27N 30°38' E 122°03'1 2.3
2018-Jun-09 05:00N 30°37' E 122°03'3 5.1
2018-Jun-09 04:28N 30°36' E 122°06'511.9
2018-Jun-09 04:00N 30°34' E 122°12'2810.9
2018-Jun-09 01:26N 30°28' E 122°44'  
2018-Jun-06 03:13N 24°38' E 119°32'415.8
2018-Jun-06 02:59N 24°35' E 119°29'815.8
2018-Jun-06 02:27N 24°29' E 119°23'715.8
2018-Jun-06 02:00N 24°24' E 119°17'916.2
2018-Jun-06 01:26N 24°18' E 119°09'716.3
2018-Jun-06 01:00N 24°14' E 119°03'816.1
2018-Jun-06 00:31N 24°09' E 118°57'915.9
2018-Jun-05 23:58N 24°03' E 118°50'715.8
2018-Jun-05 23:30N 23°58' E 118°44'815.7
2018-Jun-05 23:00N 23°53' E 118°37'815.6
2018-Jun-05 22:31N 23°48' E 118°31'815.5
2018-Jun-05 22:00N 23°42' E 118°25'1415.8
2018-Jun-05 21:09N 23°34' E 118°13'215.9
2018-Jun-05 21:00N 23°32' E 118°11'816.2
2018-Jun-05 20:30N 23°27' E 118°05'916.3
2018-Jun-05 19:59N 23°23' E 117°56'816.6
2018-Jun-05 19:30N 23°18' E 117°50'817.0
2018-Jun-05 19:00N 23°13' E 117°42'917.2
2018-Jun-05 18:27N 23°09' E 117°33'816.9
2018-Jun-05 18:00N 23°05' E 117°26'916.9
2018-Jun-05 17:30N 23°01' E 117°18'  

Dump ship's entire track history